Tweed New Haven Airport
KHVN : now visible

Airfield :











YOU CAN JOIN US ON...

 
LOGIN :

Register | Disclaimer

   EN    FR    IT 

 









Legend :    VFR   Marginal VFR   IFR   Intensive IFR   Very Intensive IFR
Visi :
Ceiling :
>= 8 km
>= 3000ft
5 to 8 km
1000 to 3000 ft
1500m to 5 km
500 to 1000 ft
800 to 1500m
200 to 500 ft
< 800m
< 200 ft
Symbols :   Thunderstorms  Fog  Heavy snow  Heavy precipitations  Wind > 20 kt






- Airport Elevation : 12 ft
- IATA code : HVN


KHVN - Tweed New Haven

CURRENT METAR :
  • 280453Z AUTO 18003KT 1/2SM R02/2600V3000FT FG VV002 17/17 A3024 RMK AO2 SLP238 T01720172 402500156

EXPIRED METARs :
  • 280432Z AUTO 18003KT 3/4SM R02/3500V5500FT BR VV002 17/17 A3024 RMK AO2 T01720167
  • 280419Z AUTO 18003KT 1 3/4SM R02/5000VP6000FT BR OVC002 18/17 A3024 RMK AO2 T01780172
  • 280353Z AUTO 15004KT 8SM OVC004 18/17 A3023 RMK AO2 CIG 002V007 SLP237 T01780167
  • 280343Z AUTO 16003KT 9SM OVC004 17/16 A3023 RMK AO2 CIG 003V008 T01720161
  • 280326Z AUTO 00000KT 10SM BKN006 BKN012 17/16 A3023 RMK AO2 T01670161
  • 280313Z AUTO 16003KT 10SM FEW006 17/16 A3023 RMK AO2 T01720161
  • 280253Z AUTO 18004KT 10SM CLR 17/16 A3023 RMK AO2 SLP236 T01720161 53008

TAF N/A
KZBW FIR / North America



MET'MAP, your aeronautical weather chart ! - Copyright ORBIFLY December 2007 - Disclaimer

ORBIFLY MET'MAP TEAM :

Programming & Development : Alexandra Zaïnal
Concept & original design : Baudouin d'Aumeries
Assistance for programming : Marc-Olivier Méhu
Technical & hardware support : Manuel Goepfert

Contact : metmap@orbifly.com




SOURCES & CREDITS :

   NOAA       Earth
Advisory